Time;durP1;ratioP1;P1;durP2;ratioP2;P2;SDS_P1;SDS_P2;PMS_P1;PMS_P2;Temp;Humidity;BMP_temperature;BMP_pressure;BME280_temperature;BME280_humidity;BME280_pressure;Samples;Min_cycle;Max_cycle;Signal;HPM_P1;HPM_P2
2022/04/27 00:01:25;;;;;;;9.57;8.57;;;9.60;99.90;;;;;;5070919;28;20278;-63
2022/04/27 00:03:51;;;;;;;8.07;7.27;;;8.80;99.90;;;;;;5072561;28;20201;-64
2022/04/27 00:06:17;;;;;;;9.48;7.68;;;9.50;99.90;;;;;;5075030;28;20185;-64
2022/04/27 00:08:42;;;;;;;8.97;8.07;;;9.80;99.90;;;;;;5071841;28;20185;-64
2022/04/27 00:11:08;;;;;;;9.57;8.57;;;9.50;99.90;;;;;;5068768;28;20185;-63
2022/04/27 00:13:34;;;;;;;8.70;7.80;;;9.40;99.90;;;;;;5072285;28;20213;-64
2022/04/27 00:15:59;;;;;;;8.73;7.83;;;9.50;99.90;;;;;;5072285;28;20185;-64
2022/04/27 00:18:25;;;;;;;10.13;9.13;;;9.60;99.90;;;;;;5067713;28;20216;-64
2022/04/27 00:20:50;;;;;;;11.13;8.90;;;9.70;99.90;;;;;;5071557;28;20184;-64
2022/04/27 00:23:16;;;;;;;10.50;9.00;;;9.60;99.90;;;;;;5070982;28;20177;-64
2022/04/27 00:25:42;;;;;;;10.20;9.20;;;9.30;99.90;;;;;;5072131;28;20188;-63
2022/04/27 00:28:07;;;;;;;10.70;9.20;;;9.30;99.90;;;;;;5067014;28;20181;-64
2022/04/27 00:30:33;;;;;;;10.00;9.00;;;9.60;99.90;;;;;;5072248;28;20238;-64
2022/04/27 00:32:59;;;;;;;10.93;9.80;;;9.50;99.90;;;;;;5071075;28;20254;-64
2022/04/27 00:35:24;;;;;;;10.60;9.40;;;9.40;99.90;;;;;;5072188;28;20635;-64
2022/04/27 00:37:50;;;;;;;9.90;8.90;;;9.50;99.90;;;;;;5068525;28;20479;-64
2022/04/27 00:40:15;;;;;;;10.90;9.57;;;9.60;99.90;;;;;;5070991;28;20261;-63
2022/04/27 00:42:41;;;;;;;11.30;10.10;;;9.70;99.90;;;;;;5070121;28;20717;-65
2022/04/27 00:45:07;;;;;;;11.60;10.40;;;9.80;99.90;;;;;;5072000;28;20223;-65
2022/04/27 00:47:33;;;;;;;12.15;10.27;;;9.60;99.90;;;;;;5069953;28;20185;-63
2022/04/27 00:49:58;;;;;;;12.87;10.57;;;9.70;99.90;;;;;;5069466;28;20661;-63
2022/04/27 00:52:25;;;;;;;11.53;9.80;;;9.60;99.90;;;;;;5070115;28;20638;-62
2022/04/27 00:54:52;;;;;;;11.88;10.77;;;10.00;99.90;;;;;;5071469;28;20617;-63
2022/04/27 00:57:19;;;;;;;14.27;12.30;;;9.80;99.90;;;;;;5068076;28;20265;-64
2022/04/27 00:59:46;;;;;;;14.30;11.68;;;9.90;99.90;;;;;;5071188;28;20181;-64
2022/04/27 01:02:12;;;;;;;11.85;10.32;;;9.60;99.90;;;;;;5067537;28;20234;-64
2022/04/27 01:04:38;;;;;;;11.07;9.93;;;9.50;99.90;;;;;;5072570;28;20572;-64
2022/04/27 01:07:05;;;;;;;12.93;11.27;;;9.50;99.90;;;;;;5071556;28;20420;-64
2022/04/27 01:09:33;;;;;;;12.68;11.30;;;9.60;99.90;;;;;;5070743;28;20186;-64
2022/04/27 01:12:01;;;;;;;13.80;11.77;;;9.70;99.90;;;;;;5068945;28;20181;-63
2022/04/27 01:14:27;;;;;;;12.88;11.35;;;9.90;99.90;;;;;;5064751;28;20687;-63
2022/04/27 01:16:56;;;;;;;13.52;11.65;;;9.70;99.90;;;;;;5067032;28;20726;-64
2022/04/27 01:19:23;;;;;;;11.80;10.52;;;9.60;99.90;;;;;;5068495;28;20184;-64
2022/04/27 01:21:54;;;;;;;12.70;11.40;;;9.50;99.90;;;;;;5069334;28;20259;-63
2022/04/27 01:24:24;;;;;;;14.13;11.77;;;9.70;99.90;;;;;;5069880;28;20193;-63
2022/04/27 01:26:50;;;;;;;15.60;12.32;;;9.80;99.90;;;;;;5067729;28;20185;-63
2022/04/27 01:29:17;;;;;;;13.25;11.68;;;9.60;99.90;;;;;;5070681;28;20199;-64
2022/04/27 01:31:43;;;;;;;12.73;11.05;;;9.60;99.90;;;;;;5064585;28;20211;-63
2022/04/27 01:34:10;;;;;;;13.07;11.30;;;9.60;99.90;;;;;;5064576;28;20205;-64
2022/04/27 01:36:36;;;;;;;13.00;11.60;;;9.80;99.90;;;;;;5070696;28;20564;-64
2022/04/27 01:39:01;;;;;;;14.77;12.37;;;9.60;99.90;;;;;;5069458;28;20189;-64
2022/04/27 01:41:27;;;;;;;14.93;12.17;;;9.50;99.90;;;;;;5069762;28;20432;-64
2022/04/27 01:43:53;;;;;;;14.43;11.40;;;10.00;99.90;;;;;;5069224;28;20296;-64
2022/04/27 01:46:18;;;;;;;13.30;11.47;;;9.90;99.90;;;;;;5065913;28;20186;-64
2022/04/27 01:48:44;;;;;;;14.37;11.80;;;9.90;99.90;;;;;;5068954;28;20276;-64
2022/04/27 01:51:09;;;;;;;12.30;11.00;;;9.80;99.90;;;;;;5069939;28;20181;-64
2022/04/27 01:56:20;;;;;;;13.63;11.30;;;9.90;99.90;;;;;;5062636;28;20610;-64
2022/04/27 01:58:45;;;;;;;14.80;12.33;;;10.00;99.90;;;;;;5067823;28;20213;-64
2022/04/27 02:01:12;;;;;;;15.80;12.97;;;10.00;99.90;;;;;;5069460;28;20946;-64
2022/04/27 02:03:39;;;;;;;15.13;12.02;;;9.70;99.90;;;;;;5066556;28;20288;-64
2022/04/27 02:06:06;;;;;;;16.90;14.63;;;9.80;99.90;;;;;;5069635;28;20219;-64
2022/04/27 02:08:31;;;;;;;16.77;14.00;;;9.80;99.90;;;;;;5084968;28;20191;-64
2022/04/27 02:10:57;;;;;;;16.70;13.70;;;9.70;99.90;;;;;;5069970;28;20180;-64
2022/04/27 02:13:25;;;;;;;16.97;13.63;;;10.00;99.90;;;;;;5069795;28;20208;-64
2022/04/27 02:15:51;;;;;;;15.98;13.55;;;9.80;99.90;;;;;;5065956;28;20196;-64
2022/04/27 02:18:19;;;;;;;18.90;15.57;;;9.80;99.90;;;;;;5066165;28;20291;-63
2022/04/27 02:20:45;;;;;;;17.27;14.48;;;9.90;99.90;;;;;;5067471;28;20426;-64
2022/04/27 02:23:11;;;;;;;17.63;15.70;;;9.50;99.90;;;;;;5064150;28;20227;-64
2022/04/27 02:25:36;;;;;;;19.77;15.73;;;9.50;99.90;;;;;;5068249;28;20212;-64
2022/04/27 02:28:02;;;;;;;18.20;15.10;;;9.60;99.90;;;;;;5069978;28;20454;-64
2022/04/27 02:30:28;;;;;;;19.97;15.80;;;9.90;99.90;;;;;;5074641;28;20192;-63
2022/04/27 02:32:53;;;;;;;20.47;16.70;;;10.00;99.90;;;;;;5068064;28;20197;-63
2022/04/27 02:35:21;;;;;;;18.33;15.13;;;9.90;99.90;;;;;;5069508;28;20467;-64
2022/04/27 02:37:46;;;;;;;19.35;15.60;;;10.00;99.90;;;;;;5069021;28;20220;-64
2022/04/27 02:40:12;;;;;;;19.50;15.50;;;9.90;99.90;;;;;;5076294;28;20697;-64
2022/04/27 02:42:38;;;;;;;20.25;15.25;;;9.90;99.90;;;;;;5069894;28;20177;-64
2022/04/27 02:45:04;;;;;;;18.43;15.87;;;10.20;99.90;;;;;;5072902;28;20674;-64
2022/04/27 02:47:31;;;;;;;18.75;15.10;;;10.00;99.90;;;;;;5068808;28;20530;-64
2022/04/27 02:52:40;;;;;;;19.92;16.08;;;9.80;99.90;;;;;;5063701;28;20552;-64
2022/04/27 02:55:06;;;;;;;21.30;16.40;;;10.10;99.90;;;;;;5066353;28;20213;-64
2022/04/27 02:57:32;;;;;;;20.90;16.40;;;10.00;99.90;;;;;;5071045;28;20208;-64
2022/04/27 02:59:58;;;;;;;24.60;15.43;;;10.00;99.90;;;;;;5069291;28;20514;-64
2022/04/27 03:02:23;;;;;;;18.73;14.50;;;10.10;99.90;;;;;;5064446;28;20206;-64
2022/04/27 03:04:49;;;;;;;20.17;16.53;;;10.10;99.90;;;;;;5068847;28;20269;-64
2022/04/27 03:07:14;;;;;;;18.17;16.20;;;9.40;99.90;;;;;;5063393;28;20193;-64
2022/04/27 03:09:40;;;;;;;15.40;13.60;;;10.00;99.90;;;;;;5065359;28;20265;-64
2022/04/27 03:12:06;;;;;;;16.73;14.03;;;10.10;99.90;;;;;;5068451;28;20276;-64
2022/04/27 03:14:32;;;;;;;16.10;13.98;;;10.10;99.90;;;;;;5066270;28;20275;-64
2022/04/27 03:16:57;;;;;;;16.20;12.80;;;10.30;99.90;;;;;;5067121;28;20216;-64
2022/04/27 03:19:24;;;;;;;16.83;14.87;;;10.20;99.90;;;;;;5069487;28;20444;-63
2022/04/27 03:21:50;;;;;;;15.95;13.70;;;10.40;99.90;;;;;;5064655;28;20189;-63
2022/04/27 03:24:16;;;;;;;16.30;13.80;;;10.20;99.90;;;;;;5063762;28;20209;-63
2022/04/27 03:26:41;;;;;;;15.43;12.80;;;10.30;99.90;;;;;;5062135;28;20570;-62
2022/04/27 03:29:07;;;;;;;13.83;11.80;;;10.60;99.90;;;;;;5069565;28;20246;-62
2022/04/27 03:31:33;;;;;;;17.43;14.30;;;10.50;99.90;;;;;;5066838;28;20184;-64
2022/04/27 03:33:59;;;;;;;15.43;13.75;;;10.30;99.90;;;;;;5071611;28;20208;-64
2022/04/27 03:36:25;;;;;;;17.00;13.50;;;10.40;99.90;;;;;;5072272;28;20182;-64
2022/04/27 03:38:51;;;;;;;15.45;12.80;;;10.50;99.90;;;;;;5087796;28;20498;-64
2022/04/27 03:41:19;;;;;;;18.60;14.35;;;10.10;99.90;;;;;;5067117;28;20201;-64
2022/04/27 03:43:45;;;;;;;17.15;14.00;;;10.10;99.90;;;;;;5069719;28;20219;-64
2022/04/27 03:46:11;;;;;;;15.57;13.33;;;10.40;99.90;;;;;;5074294;28;20634;-64
2022/04/27 03:48:37;;;;;;;15.60;13.90;;;10.30;99.90;;;;;;5070687;28;20925;-64
2022/04/27 03:51:04;;;;;;;16.53;14.43;;;10.30;99.90;;;;;;5071603;28;20443;-64
2022/04/27 03:53:29;;;;;;;14.82;13.13;;;10.50;99.90;;;;;;5072241;28;20201;-64
2022/04/27 03:55:55;;;;;;;17.47;14.27;;;10.20;99.90;;;;;;5072147;28;20193;-64
2022/04/27 03:58:21;;;;;;;14.67;12.70;;;10.40;99.90;;;;;;5071250;28;21684;-64
2022/04/27 04:00:46;;;;;;;15.90;13.40;;;10.30;99.90;;;;;;5072035;28;20181;-64
2022/04/27 04:03:12;;;;;;;18.67;13.90;;;10.40;99.90;;;;;;5070823;28;20193;-64
2022/04/27 04:05:38;;;;;;;16.70;12.33;;;10.40;99.90;;;;;;5069276;28;20620;-64
2022/04/27 04:08:05;;;;;;;15.00;12.70;;;10.20;99.90;;;;;;5069939;28;20279;-64
2022/04/27 04:10:30;;;;;;;16.00;12.77;;;10.30;99.90;;;;;;5071892;28;20188;-64
2022/04/27 04:12:56;;;;;;;13.70;11.47;;;10.10;99.90;;;;;;5067488;28;20258;-64
2022/04/27 04:15:22;;;;;;;14.27;11.93;;;10.30;99.90;;;;;;5072220;28;20205;-64
2022/04/27 04:17:47;;;;;;;16.00;13.77;;;10.50;99.90;;;;;;5072142;28;20506;-64
2022/04/27 04:20:18;;;;;;;15.67;12.80;;;10.60;99.90;;;;;;5071996;28;20209;-64
2022/04/27 04:22:45;;;;;;;15.63;13.27;;;10.50;99.90;;;;;;5073340;28;20224;-64
2022/04/27 04:30:40;;;;;;;15.43;12.30;;;10.40;99.90;;;;;;5066572;28;20195;-64
2022/04/27 04:33:06;;;;;;;15.30;13.00;;;10.40;99.90;;;;;;5067410;28;20377;-64
2022/04/27 04:35:32;;;;;;;15.70;13.23;;;10.30;99.90;;;;;;5068137;28;20260;-65
2022/04/27 04:37:58;;;;;;;16.55;12.82;;;10.20;99.90;;;;;;5071685;28;20503;-64
2022/04/27 04:40:23;;;;;;;14.17;12.67;;;10.20;99.90;;;;;;5070808;28;20236;-64
2022/04/27 04:42:49;;;;;;;16.97;13.20;;;10.20;99.90;;;;;;5070586;28;20181;-64
2022/04/27 04:45:15;;;;;;;15.60;12.87;;;10.40;99.90;;;;;;5065338;28;20205;-64
2022/04/27 04:47:44;;;;;;;17.00;13.67;;;9.90;99.90;;;;;;5068933;28;20193;-64
2022/04/27 04:50:11;;;;;;;20.00;14.93;;;9.90;99.90;;;;;;5071729;28;20181;-64
2022/04/27 04:52:37;;;;;;;16.63;13.18;;;10.10;99.90;;;;;;5069223;28;20181;-63
2022/04/27 04:55:04;;;;;;;19.77;14.40;;;10.10;99.90;;;;;;5069219;28;20212;-64
2022/04/27 04:57:29;;;;;;;17.25;14.50;;;10.60;99.90;;;;;;5069413;28;20466;-64
2022/04/27 04:59:55;;;;;;;16.57;13.57;;;10.40;99.90;;;;;;5064353;28;20203;-64
2022/04/27 05:02:21;;;;;;;18.83;14.47;;;10.50;99.90;;;;;;5067700;28;20422;-64
2022/04/27 05:04:46;;;;;;;14.60;12.30;;;10.60;99.90;;;;;;5068716;28;20220;-64
2022/04/27 05:07:12;;;;;;;17.50;14.20;;;10.40;99.90;;;;;;5071612;28;20189;-64
2022/04/27 05:09:38;;;;;;;16.80;14.47;;;10.90;99.90;;;;;;5066680;28;20220;-64
2022/04/27 05:12:04;;;;;;;17.63;13.83;;;10.50;99.90;;;;;;5069300;28;20192;-64
2022/04/27 05:14:30;;;;;;;15.77;13.60;;;10.50;99.90;;;;;;5070607;28;20209;-64
2022/04/27 05:16:56;;;;;;;17.23;13.80;;;10.50;99.90;;;;;;5069575;28;20189;-64
2022/04/27 05:19:22;;;;;;;16.23;14.20;;;10.40;99.90;;;;;;5069780;28;20180;-64
2022/04/27 05:21:49;;;;;;;18.63;14.80;;;10.50;99.90;;;;;;5070614;28;20471;-63
2022/04/27 05:24:14;;;;;;;17.33;14.63;;;10.30;99.90;;;;;;5062498;28;20213;-62
2022/04/27 05:26:40;;;;;;;18.33;13.93;;;10.70;99.90;;;;;;5064939;28;20189;-64
2022/04/27 05:31:58;;;;;;;19.90;15.10;;;10.70;99.90;;;;;;5066809;28;20187;-65
2022/04/27 05:34:33;;;;;;;17.70;14.77;;;10.80;99.90;;;;;;5068186;28;20193;-65
2022/04/27 05:36:59;;;;;;;17.02;14.85;;;10.70;99.90;;;;;;5065740;28;20177;-65
2022/04/27 05:39:25;;;;;;;18.13;15.60;;;10.80;99.90;;;;;;5069726;28;20189;-65
2022/04/27 05:41:52;;;;;;;18.27;15.27;;;10.80;99.90;;;;;;5068342;28;20546;-65
2022/04/27 05:44:19;;;;;;;16.52;13.48;;;11.00;99.90;;;;;;5069241;28;21314;-65
2022/04/27 05:46:45;;;;;;;19.15;14.65;;;10.90;99.90;;;;;;5065708;28;20560;-64
2022/04/27 05:49:14;;;;;;;18.60;13.87;;;11.00;99.90;;;;;;5064114;28;20188;-64
2022/04/27 05:51:39;;;;;;;15.18;13.10;;;10.80;99.90;;;;;;5069134;28;20748;-63
2022/04/27 05:54:05;;;;;;;15.77;12.80;;;10.80;99.90;;;;;;5067558;28;20224;-64
2022/04/27 05:56:30;;;;;;;18.50;14.63;;;11.00;99.90;;;;;;5064326;28;20186;-64
2022/04/27 05:58:56;;;;;;;19.10;15.30;;;10.30;99.90;;;;;;5066749;28;20210;-64
2022/04/27 06:01:23;;;;;;;18.70;14.10;;;10.60;99.90;;;;;;5066302;28;20215;-63
2022/04/27 06:03:49;;;;;;;18.08;14.13;;;10.60;99.90;;;;;;5058882;28;21485;-59
2022/04/27 06:06:15;;;;;;;16.67;14.05;;;11.00;99.90;;;;;;5068845;28;20178;-60
2022/04/27 06:08:41;;;;;;;14.90;13.27;;;11.00;99.90;;;;;;5073957;28;20186;-59
2022/04/27 06:11:06;;;;;;;21.92;18.58;;;11.20;99.90;;;;;;5064313;28;20193;-59
2022/04/27 06:13:32;;;;;;;17.90;14.13;;;11.10;99.90;;;;;;5067581;28;20565;-60
2022/04/27 06:15:57;;;;;;;15.83;14.00;;;11.40;99.90;;;;;;5069628;28;20243;-60
2022/04/27 06:18:23;;;;;;;20.20;14.40;;;10.90;99.90;;;;;;5068928;28;20266;-59
2022/04/27 06:20:49;;;;;;;16.33;13.33;;;10.80;99.90;;;;;;5062225;28;20190;-60
2022/04/27 06:23:14;;;;;;;17.03;14.07;;;11.00;99.90;;;;;;5066310;28;20641;-62
2022/04/27 06:25:41;;;;;;;14.80;13.20;;;11.20;99.90;;;;;;5064767;28;20719;-61
2022/04/27 06:28:07;;;;;;;18.05;13.65;;;11.10;99.90;;;;;;5069100;28;20228;-61
2022/04/27 06:30:35;;;;;;;17.30;14.10;;;11.20;99.90;;;;;;5067195;28;20198;-59
2022/04/27 06:33:01;;;;;;;16.38;13.95;;;11.40;99.90;;;;;;5066408;28;20204;-60
2022/04/27 06:35:27;;;;;;;17.80;14.50;;;11.00;99.90;;;;;;5069065;28;20564;-59
2022/04/27 06:37:53;;;;;;;17.93;13.23;;;11.10;99.90;;;;;;5068001;28;20218;-59
2022/04/27 06:40:18;;;;;;;16.90;14.37;;;11.00;99.90;;;;;;5063327;28;20651;-59
2022/04/27 06:42:45;;;;;;;16.60;14.17;;;11.10;99.90;;;;;;5068240;28;20189;-58
2022/04/27 06:45:11;;;;;;;15.50;12.48;;;11.20;99.90;;;;;;5067311;28;20448;-58
2022/04/27 06:47:37;;;;;;;16.38;13.30;;;11.20;99.90;;;;;;5060763;28;20221;-59
2022/04/27 06:50:03;;;;;;;17.10;13.93;;;11.40;99.90;;;;;;5068388;28;20195;-58
2022/04/27 06:52:28;;;;;;;15.90;13.10;;;11.30;99.90;;;;;;5068655;28;20196;-58
2022/04/27 06:54:54;;;;;;;15.50;12.93;;;11.20;99.90;;;;;;5068156;28;20631;-58
2022/04/27 06:57:19;;;;;;;16.37;13.33;;;11.50;99.90;;;;;;5065354;28;20288;-67
2022/04/27 06:59:45;;;;;;;13.93;12.23;;;11.70;99.90;;;;;;5070360;28;20181;-62
2022/04/27 07:02:13;;;;;;;14.07;12.67;;;11.80;99.90;;;;;;5067319;28;20175;-60
2022/04/27 07:04:40;;;;;;;12.20;10.90;;;11.70;99.90;;;;;;5068243;28;20570;-60
2022/04/27 07:07:07;;;;;;;15.88;12.73;;;11.90;99.90;;;;;;5068070;28;20185;-61
2022/04/27 07:09:33;;;;;;;14.25;12.75;;;11.70;99.90;;;;;;5069392;28;20180;-60
2022/04/27 07:11:59;;;;;;;13.17;11.23;;;11.80;99.90;;;;;;5072660;28;20194;-60
2022/04/27 07:14:25;;;;;;;13.23;11.40;;;12.10;99.90;;;;;;5071090;28;20272;-58
2022/04/27 07:16:50;;;;;;;14.70;12.90;;;11.80;99.90;;;;;;5069935;28;20321;-63
2022/04/27 07:19:17;;;;;;;13.17;11.77;;;12.00;99.90;;;;;;5076658;28;20247;-67
2022/04/27 07:21:43;;;;;;;13.18;11.77;;;12.00;99.90;;;;;;5075848;28;20183;-62
2022/04/27 07:24:08;;;;;;;12.80;11.50;;;11.70;99.90;;;;;;5072223;28;20257;-62
2022/04/27 07:26:34;;;;;;;13.47;11.87;;;11.70;99.90;;;;;;5079208;28;20179;-59
2022/04/27 07:29:00;;;;;;;11.93;10.67;;;11.40;99.90;;;;;;5071384;28;20211;-64
2022/04/27 07:31:26;;;;;;;13.30;11.40;;;11.60;99.90;;;;;;5070915;28;20538;-67
2022/04/27 07:33:51;;;;;;;12.97;10.67;;;11.70;99.90;;;;;;5069524;28;20211;-70
2022/04/27 07:36:18;;;;;;;12.83;10.43;;;11.80;99.90;;;;;;5074216;28;20768;-64
2022/04/27 07:38:43;;;;;;;15.95;10.80;;;11.70;99.90;;;;;;5073444;28;20271;-65
2022/04/27 07:41:09;;;;;;;10.80;9.50;;;11.70;99.90;;;;;;5071734;28;20188;-66
2022/04/27 07:43:35;;;;;;;10.83;9.67;;;11.60;99.90;;;;;;5072535;28;20196;-67
2022/04/27 07:46:03;;;;;;;9.90;8.90;;;11.90;99.90;;;;;;5075305;28;20453;-66
2022/04/27 07:48:32;;;;;;;11.27;10.02;;;12.20;99.90;;;;;;5069489;28;20446;-73
2022/04/27 07:50:59;;;;;;;9.95;8.90;;;12.60;99.90;;;;;;5073775;28;20184;-68
2022/04/27 07:53:25;;;;;;;11.00;9.75;;;12.70;99.90;;;;;;5072413;28;20208;-68
2022/04/27 07:55:50;;;;;;;12.00;9.87;;;13.00;99.90;;;;;;5072057;28;20196;-65
2022/04/27 07:58:16;;;;;;;10.37;9.30;;;13.00;99.90;;;;;;5071802;28;20536;-65
2022/04/27 08:00:41;;;;;;;11.00;9.33;;;12.90;99.90;;;;;;5071257;28;20283;-63
2022/04/27 08:03:07;;;;;;;13.57;10.70;;;12.80;99.90;;;;;;5069665;28;20270;-64
2022/04/27 08:05:33;;;;;;;9.30;8.30;;;12.90;99.90;;;;;;5072886;28;20741;-63
2022/04/27 08:07:58;;;;;;;13.00;9.27;;;13.50;99.90;;;;;;5074983;28;20192;-65
2022/04/27 08:10:24;;;;;;;10.80;9.30;;;13.80;99.90;;;;;;5072077;28;20192;-64
2022/04/27 08:12:50;;;;;;;10.17;9.13;;;14.10;99.90;;;;;;5070729;28;20759;-63
2022/04/27 08:15:21;;;;;;;11.50;9.67;;;14.20;99.90;;;;;;5069908;28;20208;-64
2022/04/27 08:18:01;;;;;;;10.48;9.38;;;13.60;99.90;;;;;;5073994;28;20204;-67
2022/04/27 08:23:17;;;;;;;10.35;9.30;;;14.20;99.90;;;;;;5069954;28;20271;-68
2022/04/27 08:25:44;;;;;;;13.10;9.05;;;15.20;99.90;;;;;;5071119;28;20211;-67
2022/04/27 08:28:10;;;;;;;8.57;7.68;;;15.80;98.80;;;;;;5066560;28;20192;-66
2022/04/27 08:30:38;;;;;;;8.47;7.47;;;16.30;96.50;;;;;;5072186;28;20193;-69
2022/04/27 08:33:05;;;;;;;9.30;8.40;;;17.20;95.60;;;;;;5072967;28;20206;-59
2022/04/27 08:35:32;;;;;;;9.05;8.25;;;19.50;92.50;;;;;;5076723;28;20203;-66
2022/04/27 08:38:01;;;;;;;11.05;8.70;;;20.60;86.90;;;;;;5070071;28;20696;-65
2022/04/27 08:40:28;;;;;;;8.13;7.32;;;20.40;84.70;;;;;;5069231;28;20590;-65
2022/04/27 08:42:54;;;;;;;8.93;8.13;;;20.70;83.80;;;;;;5068305;28;20589;-61
2022/04/27 08:45:21;;;;;;;8.95;8.10;;;20.20;85.00;;;;;;5071028;28;20962;-63
2022/04/27 08:47:48;;;;;;;8.75;7.90;;;20.90;79.60;;;;;;5067657;28;20330;-62
2022/04/27 08:50:17;;;;;;;10.02;8.35;;;20.80;78.70;;;;;;5075413;28;20189;-62
2022/04/27 08:52:43;;;;;;;11.38;9.35;;;20.10;80.50;;;;;;5073846;28;20196;-62
2022/04/27 08:55:10;;;;;;;9.30;8.40;;;19.70;80.80;;;;;;5068276;28;20291;-61
2022/04/27 08:57:36;;;;;;;10.10;8.75;;;20.40;81.60;;;;;;5068962;28;20253;-72
2022/04/27 09:00:05;;;;;;;9.53;8.63;;;20.40;80.10;;;;;;5071401;28;20661;-67
2022/04/27 09:02:31;;;;;;;9.32;8.43;;;19.30;81.10;;;;;;5071088;28;20888;-67
2022/04/27 09:05:17;;;;;;;9.23;8.33;;;19.60;80.10;;;;;;5068836;28;20364;-66
2022/04/27 09:07:51;;;;;;;9.10;8.20;;;19.40;79.60;;;;;;5070146;28;20538;-66
2022/04/27 09:10:19;;;;;;;11.25;8.70;;;19.10;79.60;;;;;;5070513;28;20185;-67
2022/04/27 09:12:49;;;;;;;9.50;8.55;;;18.70;80.90;;;;;;5084184;28;20232;-61
2022/04/27 09:15:18;;;;;;;13.30;12.02;;;17.60;83.20;;;;;;5070139;28;20263;-73
2022/04/27 09:20:52;;;;;;;8.30;7.50;;;17.80;86.00;;;;;;5070678;28;20237;-67
2022/04/27 09:23:24;;;;;;;8.52;7.65;;;17.70;86.00;;;;;;5069708;28;20205;-73
2022/04/27 09:25:51;;;;;;;8.02;7.22;;;17.50;86.20;;;;;;5069380;28;20185;-72
2022/04/27 09:28:18;;;;;;;6.93;6.22;;;17.10;84.00;;;;;;5068498;28;20176;-61
2022/04/27 09:30:46;;;;;;;6.97;6.28;;;16.60;86.30;;;;;;5069130;28;20683;-63
2022/04/27 09:33:12;;;;;;;8.65;7.75;;;16.50;87.10;;;;;;5072142;28;20188;-66
2022/04/27 09:35:38;;;;;;;7.17;6.57;;;16.00;90.10;;;;;;5062964;28;20188;-69
2022/04/27 09:38:18;;;;;;;7.50;6.80;;;16.20;90.50;;;;;;5070238;28;20203;-66
2022/04/27 09:40:47;;;;;;;7.78;6.95;;;16.40;89.30;;;;;;5068263;28;20225;-67
2022/04/27 09:43:16;;;;;;;8.35;7.50;;;16.50;89.80;;;;;;5069914;28;20172;-67
2022/04/27 09:45:45;;;;;;;9.40;6.45;;;16.40;90.60;;;;;;5070852;28;20196;-69
2022/04/27 09:48:18;;;;;;;8.40;6.28;;;16.10;90.50;;;;;;5068660;28;20177;-60
2022/04/27 09:50:51;;;;;;;7.53;6.78;;;15.70;91.10;;;;;;5074820;28;20191;-59
2022/04/27 09:53:18;;;;;;;9.00;5.70;;;16.00;91.90;;;;;;5065720;28;20592;-63
2022/04/27 09:55:50;;;;;;;6.75;5.88;;;16.10;91.40;;;;;;5069386;28;20212;-60
2022/04/27 09:58:18;;;;;;;6.55;5.95;;;16.00;91.20;;;;;;5064240;28;20531;-61
2022/04/27 10:00:45;;;;;;;5.80;5.20;;;15.70;91.60;;;;;;5070760;28;20276;-59
2022/04/27 10:03:16;;;;;;;4.60;4.20;;;16.00;92.10;;;;;;5067865;28;20185;-59
2022/04/27 10:05:42;;;;;;;3.90;3.60;;;16.20;90.60;;;;;;5068579;28;20229;-59
2022/04/27 10:08:09;;;;;;;4.88;3.97;;;16.50;88.80;;;;;;5067623;28;20286;-59
2022/04/27 10:10:44;;;;;;;4.30;4.00;;;16.50;87.30;;;;;;5057401;28;20193;-59
2022/04/27 10:13:12;;;;;;;4.25;3.85;;;16.90;87.50;;;;;;5068816;28;20215;-59
2022/04/27 10:15:45;;;;;;;4.70;4.30;;;17.00;86.60;;;;;;5066915;28;20643;-59
2022/04/27 10:18:15;;;;;;;5.50;5.00;;;16.90;86.50;;;;;;5063869;28;20216;-59
2022/04/27 10:20:40;;;;;;;5.18;4.65;;;17.20;85.90;;;;;;5066856;28;20185;-59
2022/04/27 10:23:15;;;;;;;4.50;4.10;;;17.00;86.20;;;;;;5072735;28;20618;-59
2022/04/27 10:25:41;;;;;;;4.15;3.85;;;16.90;85.50;;;;;;5068680;28;20503;-59
2022/04/27 10:28:22;;;;;;;3.85;3.55;;;16.90;86.70;;;;;;5064331;28;20193;-60
2022/04/27 10:30:48;;;;;;;4.53;3.83;;;16.90;86.50;;;;;;5078376;28;20509;-60
2022/04/27 10:33:39;;;;;;;5.13;4.50;;;17.20;86.50;;;;;;5065483;28;20733;-60
2022/04/27 10:36:30;;;;;;;5.03;4.53;;;17.40;86.00;;;;;;5069427;28;20234;-60
2022/04/27 10:39:16;;;;;;;5.25;4.80;;;17.20;85.80;;;;;;5068806;28;20219;-59
2022/04/27 10:42:04;;;;;;;3.80;3.45;;;17.20;86.50;;;;;;5059878;28;20902;-59
2022/04/27 10:44:48;;;;;;;4.05;3.75;;;17.10;85.30;;;;;;5068411;28;20227;-59
2022/04/27 10:47:19;;;;;;;5.20;4.80;;;16.90;85.90;;;;;;5059502;28;20192;-59
2022/04/27 10:49:47;;;;;;;4.00;3.70;;;16.70;85.90;;;;;;5067779;28;20622;-59
2022/04/27 10:52:13;;;;;;;4.10;3.75;;;16.90;86.70;;;;;;5068377;28;20181;-59
2022/04/27 10:54:40;;;;;;;4.05;3.75;;;16.60;86.70;;;;;;5062978;28;20616;-59
2022/04/27 10:57:15;;;;;;;4.10;3.78;;;16.70;87.30;;;;;;5069039;28;20173;-60
2022/04/27 10:59:47;;;;;;;4.30;3.90;;;16.80;86.90;;;;;;5068108;28;20330;-59
2022/04/27 11:02:35;;;;;;;4.30;4.00;;;16.70;87.20;;;;;;5063696;28;20191;-60
2022/04/27 11:05:10;;;;;;;3.95;3.65;;;16.50;86.20;;;;;;5062430;28;20208;-60
2022/04/27 11:07:41;;;;;;;4.38;4.03;;;16.80;86.70;;;;;;5060539;28;20187;-61
2022/04/27 11:10:10;;;;;;;4.45;4.15;;;16.50;87.30;;;;;;5068276;28;20661;-61
2022/04/27 11:12:37;;;;;;;4.22;3.83;;;16.30;87.70;;;;;;5066363;28;20822;-62
2022/04/27 11:15:05;;;;;;;3.85;3.55;;;16.70;86.90;;;;;;5068018;28;20208;-62
2022/04/27 11:17:33;;;;;;;4.18;3.78;;;16.60;86.80;;;;;;5063683;28;20217;-60
2022/04/27 11:19:59;;;;;;;4.72;4.15;;;16.90;86.90;;;;;;5065070;28;20681;-60
2022/04/27 11:22:24;;;;;;;4.18;3.88;;;16.80;86.70;;;;;;5065291;28;20188;-60
2022/04/27 11:24:50;;;;;;;6.60;4.57;;;16.90;86.70;;;;;;5066555;28;20228;-60
2022/04/27 11:27:27;;;;;;;6.37;5.77;;;16.90;86.30;;;;;;5068596;28;20189;-60
2022/04/27 11:29:54;;;;;;;5.53;5.03;;;16.80;86.40;;;;;;5066514;28;20200;-60
2022/04/27 11:32:20;;;;;;;4.55;4.15;;;16.90;86.50;;;;;;5069416;28;20718;-60
2022/04/27 11:34:48;;;;;;;4.93;4.53;;;16.90;86.10;;;;;;5069375;28;20209;-60
2022/04/27 11:37:15;;;;;;;4.80;4.40;;;17.50;84.10;;;;;;5067708;28;20450;-60
2022/04/27 11:39:41;;;;;;;4.75;4.45;;;18.20;82.10;;;;;;5067944;28;20212;-60
2022/04/27 11:42:09;;;;;;;4.25;3.85;;;18.40;80.60;;;;;;5062857;28;20637;-60
2022/04/27 11:44:35;;;;;;;4.57;4.15;;;19.00;78.50;;;;;;5063955;28;20280;-60
2022/04/27 11:47:00;;;;;;;5.00;4.30;;;20.30;75.70;;;;;;5064087;28;20283;-60
2022/04/27 11:49:26;;;;;;;5.00;4.60;;;20.40;72.80;;;;;;5062578;28;20181;-60
2022/04/27 11:51:52;;;;;;;4.73;4.10;;;20.40;72.40;;;;;;5068633;28;20904;-64
2022/04/27 11:54:24;;;;;;;4.53;4.17;;;20.20;72.80;;;;;;5068283;28;20205;-57
2022/04/27 11:57:00;;;;;;;4.93;4.55;;;19.90;74.10;;;;;;5069031;28;20229;-58
2022/04/27 11:59:39;;;;;;;5.40;4.90;;;19.70;73.50;;;;;;5069024;28;20193;-58
2022/04/27 12:02:05;;;;;;;4.25;3.95;;;19.20;74.90;;;;;;5063897;28;20193;-57
2022/04/27 12:04:30;;;;;;;4.83;4.43;;;18.90;75.60;;;;;;5066066;28;20213;-58
2022/04/27 12:06:56;;;;;;;5.13;4.73;;;18.50;76.80;;;;;;5071323;28;20448;-58
2022/04/27 12:09:22;;;;;;;4.60;4.20;;;18.50;76.30;;;;;;5067138;28;20209;-57
2022/04/27 12:11:48;;;;;;;4.87;4.47;;;18.60;78.10;;;;;;5064678;28;20555;-57
2022/04/27 12:14:17;;;;;;;4.40;4.10;;;18.40;76.70;;;;;;5068793;28;20204;-56
2022/04/27 12:16:43;;;;;;;4.95;4.60;;;18.40;77.00;;;;;;5062972;28;20436;-58
2022/04/27 12:19:08;;;;;;;4.57;4.13;;;18.20;76.60;;;;;;5072304;28;20234;-57
2022/04/27 12:21:34;;;;;;;4.37;4.07;;;18.10;78.00;;;;;;5070102;28;20193;-58
2022/04/27 12:24:17;;;;;;;5.43;4.93;;;17.90;77.90;;;;;;5072535;28;20205;-57
2022/04/27 12:26:43;;;;;;;5.07;4.68;;;18.00;78.70;;;;;;5065990;28;20201;-57
2022/04/27 12:29:08;;;;;;;5.63;3.80;;;17.90;78.80;;;;;;5069796;28;20638;-57
2022/04/27 12:31:37;;;;;;;3.97;3.70;;;17.90;79.50;;;;;;5065690;28;20271;-58
2022/04/27 12:37:29;;;;;;;4.40;4.10;;;18.20;80.70;;;;;;5068653;28;20232;-58
2022/04/27 12:39:39;;;;;;;4.55;4.22;;;18.30;75.40;;;;;;5069869;28;20254;-58
2022/04/27 12:42:09;;;;;;;4.50;4.10;;;18.20;76.40;;;;;;5069990;28;20173;-61
2022/04/27 12:44:42;;;;;;;4.70;4.30;;;18.40;76.80;;;;;;5070910;28;20201;-58
2022/04/27 12:47:10;;;;;;;4.45;4.05;;;18.10;78.10;;;;;;5082974;28;20279;-58
2022/04/27 12:49:50;;;;;;;4.20;3.90;;;18.20;76.70;;;;;;5068869;28;20595;-58
2022/04/27 12:52:25;;;;;;;4.30;4.00;;;18.30;75.50;;;;;;5078077;28;20180;-58
2022/04/27 12:55:08;;;;;;;4.20;3.90;;;18.00;75.70;;;;;;5068542;28;20207;-63
2022/04/27 12:57:46;;;;;;;4.15;3.85;;;17.70;76.40;;;;;;5073982;28;20269;-62
2022/04/27 13:00:13;;;;;;;4.20;3.90;;;17.70;77.10;;;;;;5069728;28;20177;-66
2022/04/27 13:02:39;;;;;;;4.40;4.00;;;17.80;77.60;;;;;;5070500;28;20259;-64